sensor_id;sensor_type;location;lat;lon;timestamp;P1;durP1;ratioP1;P2;durP2;ratioP2
80425;SDS011;69766;51.476;5.704;2024-03-08T00:07:35;55.50;;;24.40;;
80425;SDS011;69766;51.476;5.704;2024-03-08T01:12:21;48.47;;;23.67;;
80425;SDS011;69766;51.476;5.704;2024-03-08T01:23:43;52.87;;;24.80;;
80425;SDS011;69766;51.476;5.704;2024-03-08T01:40:47;51.43;;;22.63;;
80425;SDS011;69766;51.476;5.704;2024-03-08T01:43:27;51.90;;;24.02;;
80425;SDS011;69766;51.476;5.704;2024-03-08T01:53:11;50.83;;;24.33;;
80425;SDS011;69766;51.476;5.704;2024-03-08T02:02:11;53.77;;;22.97;;
80425;SDS011;69766;51.476;5.704;2024-03-08T02:14:55;48.70;;;23.47;;
80425;SDS011;69766;51.476;5.704;2024-03-08T02:20:39;52.17;;;25.67;;
80425;SDS011;69766;51.476;5.704;2024-03-08T02:23:09;54.73;;;24.07;;
80425;SDS011;69766;51.476;5.704;2024-03-08T02:25:35;53.40;;;25.73;;
80425;SDS011;69766;51.476;5.704;2024-03-08T02:28:02;52.87;;;25.63;;
80425;SDS011;69766;51.476;5.704;2024-03-08T02:30:32;53.17;;;25.57;;
80425;SDS011;69766;51.476;5.704;2024-03-08T02:32:58;46.03;;;22.80;;
80425;SDS011;69766;51.476;5.704;2024-03-08T02:41:20;54.57;;;25.57;;
80425;SDS011;69766;51.476;5.704;2024-03-08T02:46:25;52.47;;;25.00;;
80425;SDS011;69766;51.476;5.704;2024-03-08T02:48:55;55.17;;;25.80;;
80425;SDS011;69766;51.476;5.704;2024-03-08T02:51:21;54.47;;;26.70;;
80425;SDS011;69766;51.476;5.704;2024-03-08T02:53:51;50.03;;;26.58;;
80425;SDS011;69766;51.476;5.704;2024-03-08T02:56:18;55.57;;;26.70;;
80425;SDS011;69766;51.476;5.704;2024-03-08T02:58:44;54.10;;;25.87;;
80425;SDS011;69766;51.476;5.704;2024-03-08T03:01:14;50.30;;;24.50;;
80425;SDS011;69766;51.476;5.704;2024-03-08T03:03:40;57.33;;;25.47;;
80425;SDS011;69766;51.476;5.704;2024-03-08T03:06:12;53.53;;;24.73;;
80425;SDS011;69766;51.476;5.704;2024-03-08T03:08:43;56.40;;;26.13;;
80425;SDS011;69766;51.476;5.704;2024-03-08T03:11:35;50.95;;;24.13;;
80425;SDS011;69766;51.476;5.704;2024-03-08T03:14:25;49.73;;;24.43;;
80425;SDS011;69766;51.476;5.704;2024-03-08T03:16:56;58.17;;;27.37;;
80425;SDS011;69766;51.476;5.704;2024-03-08T03:19:44;55.03;;;25.83;;
80425;SDS011;69766;51.476;5.704;2024-03-08T03:22:12;52.73;;;25.13;;
80425;SDS011;69766;51.476;5.704;2024-03-08T03:24:41;52.77;;;25.43;;
80425;SDS011;69766;51.476;5.704;2024-03-08T03:27:07;61.53;;;27.17;;
80425;SDS011;69766;51.476;5.704;2024-03-08T03:29:37;57.73;;;27.43;;
80425;SDS011;69766;51.476;5.704;2024-03-08T03:32:11;54.30;;;27.73;;
80425;SDS011;69766;51.476;5.704;2024-03-08T03:34:37;53.47;;;25.97;;
80425;SDS011;69766;51.476;5.704;2024-03-08T03:37:04;60.57;;;26.00;;
80425;SDS011;69766;51.476;5.704;2024-03-08T03:39:31;57.57;;;25.50;;
80425;SDS011;69766;51.476;5.704;2024-03-08T03:41:59;55.23;;;26.07;;
80425;SDS011;69766;51.476;5.704;2024-03-08T03:44:27;53.57;;;25.97;;
80425;SDS011;69766;51.476;5.704;2024-03-08T03:50:17;53.20;;;26.40;;
80425;SDS011;69766;51.476;5.704;2024-03-08T03:55:27;58.80;;;26.37;;
80425;SDS011;69766;51.476;5.704;2024-03-08T03:57:53;56.23;;;28.33;;
80425;SDS011;69766;51.476;5.704;2024-03-08T04:00:19;51.63;;;24.77;;
80425;SDS011;69766;51.476;5.704;2024-03-08T04:02:45;58.30;;;26.83;;
80425;SDS011;69766;51.476;5.704;2024-03-08T04:05:11;52.77;;;26.73;;
80425;SDS011;69766;51.476;5.704;2024-03-08T04:07:45;58.50;;;27.17;;
80425;SDS011;69766;51.476;5.704;2024-03-08T04:10:23;50.57;;;26.13;;
80425;SDS011;69766;51.476;5.704;2024-03-08T04:12:49;51.93;;;25.27;;
80425;SDS011;69766;51.476;5.704;2024-03-08T04:15:15;59.27;;;27.57;;
80425;SDS011;69766;51.476;5.704;2024-03-08T04:17:41;59.87;;;25.50;;
80425;SDS011;69766;51.476;5.704;2024-03-08T04:20:07;60.97;;;29.90;;
80425;SDS011;69766;51.476;5.704;2024-03-08T04:22:35;53.87;;;26.17;;
80425;SDS011;69766;51.476;5.704;2024-03-08T04:25:02;58.67;;;29.00;;
80425;SDS011;69766;51.476;5.704;2024-03-08T04:27:28;53.57;;;26.27;;
80425;SDS011;69766;51.476;5.704;2024-03-08T04:29:54;56.13;;;27.20;;
80425;SDS011;69766;51.476;5.704;2024-03-08T04:32:20;56.50;;;26.63;;
80425;SDS011;69766;51.476;5.704;2024-03-08T04:34:47;57.77;;;27.90;;
80425;SDS011;69766;51.476;5.704;2024-03-08T04:37:15;56.83;;;26.70;;
80425;SDS011;69766;51.476;5.704;2024-03-08T04:39:47;62.57;;;28.63;;
80425;SDS011;69766;51.476;5.704;2024-03-08T04:42:13;53.87;;;27.57;;
80425;SDS011;69766;51.476;5.704;2024-03-08T04:44:39;58.90;;;27.00;;
80425;SDS011;69766;51.476;5.704;2024-03-08T04:47:05;63.27;;;28.77;;
80425;SDS011;69766;51.476;5.704;2024-03-08T04:49:32;60.83;;;29.43;;
80425;SDS011;69766;51.476;5.704;2024-03-08T04:52:00;60.40;;;28.30;;
80425;SDS011;69766;51.476;5.704;2024-03-08T04:54:29;62.20;;;28.17;;
80425;SDS011;69766;51.476;5.704;2024-03-08T04:56:55;61.83;;;29.20;;
80425;SDS011;69766;51.476;5.704;2024-03-08T04:59:22;65.57;;;28.33;;
80425;SDS011;69766;51.476;5.704;2024-03-08T05:01:48;57.93;;;28.83;;
80425;SDS011;69766;51.476;5.704;2024-03-08T05:04:13;59.10;;;27.47;;
80425;SDS011;69766;51.476;5.704;2024-03-08T05:06:40;64.47;;;28.77;;
80425;SDS011;69766;51.476;5.704;2024-03-08T05:09:06;63.17;;;28.93;;
80425;SDS011;69766;51.476;5.704;2024-03-08T05:11:42;67.00;;;29.90;;
80425;SDS011;69766;51.476;5.704;2024-03-08T05:14:09;67.20;;;29.93;;
80425;SDS011;69766;51.476;5.704;2024-03-08T05:16:35;63.80;;;28.93;;
80425;SDS011;69766;51.476;5.704;2024-03-08T05:19:01;67.93;;;31.27;;
80425;SDS011;69766;51.476;5.704;2024-03-08T05:21:27;63.77;;;28.60;;
80425;SDS011;69766;51.476;5.704;2024-03-08T05:23:54;62.43;;;28.00;;
80425;SDS011;69766;51.476;5.704;2024-03-08T05:26:19;65.83;;;29.87;;
80425;SDS011;69766;51.476;5.704;2024-03-08T05:28:47;67.50;;;30.37;;
80425;SDS011;69766;51.476;5.704;2024-03-08T05:31:23;62.17;;;30.03;;
80425;SDS011;69766;51.476;5.704;2024-03-08T05:33:49;59.80;;;28.83;;
80425;SDS011;69766;51.476;5.704;2024-03-08T05:36:15;64.37;;;30.43;;
80425;SDS011;69766;51.476;5.704;2024-03-08T05:38:46;63.47;;;28.40;;
80425;SDS011;69766;51.476;5.704;2024-03-08T05:43:40;65.50;;;29.93;;
80425;SDS011;69766;51.476;5.704;2024-03-08T05:46:06;65.20;;;30.83;;
80425;SDS011;69766;51.476;5.704;2024-03-08T05:48:32;62.17;;;29.63;;
80425;SDS011;69766;51.476;5.704;2024-03-08T05:50:59;62.13;;;28.07;;
80425;SDS011;69766;51.476;5.704;2024-03-08T05:53:25;72.93;;;30.40;;
80425;SDS011;69766;51.476;5.704;2024-03-08T05:55:51;62.90;;;29.57;;
80425;SDS011;69766;51.476;5.704;2024-03-08T05:58:17;66.47;;;29.43;;
80425;SDS011;69766;51.476;5.704;2024-03-08T06:00:43;67.73;;;28.83;;
80425;SDS011;69766;51.476;5.704;2024-03-08T06:03:11;62.27;;;30.77;;
80425;SDS011;69766;51.476;5.704;2024-03-08T06:05:37;72.10;;;30.97;;
80425;SDS011;69766;51.476;5.704;2024-03-08T06:08:05;67.17;;;29.37;;
80425;SDS011;69766;51.476;5.704;2024-03-08T06:10:32;58.53;;;28.70;;
80425;SDS011;69766;51.476;5.704;2024-03-08T06:12:58;67.17;;;30.13;;
80425;SDS011;69766;51.476;5.704;2024-03-08T06:15:25;66.80;;;29.50;;
80425;SDS011;69766;51.476;5.704;2024-03-08T06:17:50;67.00;;;28.77;;
80425;SDS011;69766;51.476;5.704;2024-03-08T06:20:19;67.03;;;31.00;;
80425;SDS011;69766;51.476;5.704;2024-03-08T06:22:45;66.77;;;29.33;;
80425;SDS011;69766;51.476;5.704;2024-03-08T06:25:11;63.47;;;29.13;;
80425;SDS011;69766;51.476;5.704;2024-03-08T06:27:41;64.17;;;29.60;;
80425;SDS011;69766;51.476;5.704;2024-03-08T06:30:11;66.57;;;29.33;;
80425;SDS011;69766;51.476;5.704;2024-03-08T06:32:38;70.97;;;31.60;;
80425;SDS011;69766;51.476;5.704;2024-03-08T06:35:06;60.87;;;28.93;;
80425;SDS011;69766;51.476;5.704;2024-03-08T06:37:33;65.87;;;29.73;;
80425;SDS011;69766;51.476;5.704;2024-03-08T06:39:59;66.27;;;29.33;;
80425;SDS011;69766;51.476;5.704;2024-03-08T06:42:26;64.40;;;27.77;;
80425;SDS011;69766;51.476;5.704;2024-03-08T06:44:53;69.57;;;28.27;;
80425;SDS011;69766;51.476;5.704;2024-03-08T06:47:21;63.03;;;28.70;;
80425;SDS011;69766;51.476;5.704;2024-03-08T06:49:50;64.33;;;31.63;;
80425;SDS011;69766;51.476;5.704;2024-03-08T06:52:17;62.13;;;27.80;;
80425;SDS011;69766;51.476;5.704;2024-03-08T06:54:43;61.70;;;27.30;;
80425;SDS011;69766;51.476;5.704;2024-03-08T06:57:09;56.07;;;26.53;;
80425;SDS011;69766;51.476;5.704;2024-03-08T06:59:35;62.97;;;29.27;;
80425;SDS011;69766;51.476;5.704;2024-03-08T07:02:01;57.07;;;28.07;;
80425;SDS011;69766;51.476;5.704;2024-03-08T07:04:27;62.53;;;28.30;;
80425;SDS011;69766;51.476;5.704;2024-03-08T07:06:58;60.57;;;29.10;;
80425;SDS011;69766;51.476;5.704;2024-03-08T07:09:24;61.87;;;28.07;;
80425;SDS011;69766;51.476;5.704;2024-03-08T07:11:50;56.40;;;26.63;;
80425;SDS011;69766;51.476;5.704;2024-03-08T07:14:22;58.40;;;25.43;;
80425;SDS011;69766;51.476;5.704;2024-03-08T07:16:49;52.90;;;25.70;;
80425;SDS011;69766;51.476;5.704;2024-03-08T07:19:15;54.10;;;26.00;;
80425;SDS011;69766;51.476;5.704;2024-03-08T07:21:42;54.47;;;26.13;;
80425;SDS011;69766;51.476;5.704;2024-03-08T07:27:06;55.28;;;26.67;;
80425;SDS011;69766;51.476;5.704;2024-03-08T07:29:44;56.17;;;25.03;;
80425;SDS011;69766;51.476;5.704;2024-03-08T07:35:07;55.40;;;25.20;;
80425;SDS011;69766;51.476;5.704;2024-03-08T07:37:33;53.70;;;24.63;;
80425;SDS011;69766;51.476;5.704;2024-03-08T07:40:07;56.73;;;26.87;;
80425;SDS011;69766;51.476;5.704;2024-03-08T07:42:53;56.43;;;25.67;;
80425;SDS011;69766;51.476;5.704;2024-03-08T07:45:29;52.53;;;24.57;;
80425;SDS011;69766;51.476;5.704;2024-03-08T07:48:05;49.13;;;23.33;;
80425;SDS011;69766;51.476;5.704;2024-03-08T07:51:07;53.90;;;23.20;;
80425;SDS011;69766;51.476;5.704;2024-03-08T07:53:34;53.67;;;25.40;;
80425;SDS011;69766;51.476;5.704;2024-03-08T07:56:00;53.35;;;23.77;;
80425;SDS011;69766;51.476;5.704;2024-03-08T07:58:35;48.95;;;23.23;;
80425;SDS011;69766;51.476;5.704;2024-03-08T08:01:01;45.17;;;22.63;;
80425;SDS011;69766;51.476;5.704;2024-03-08T08:06:15;47.97;;;23.50;;
80425;SDS011;69766;51.476;5.704;2024-03-08T08:15:54;49.47;;;22.23;;
80425;SDS011;69766;51.476;5.704;2024-03-08T08:18:01;43.58;;;20.95;;
80425;SDS011;69766;51.476;5.704;2024-03-08T08:24:10;44.40;;;22.48;;
80425;SDS011;69766;51.476;5.704;2024-03-08T08:26:36;40.40;;;21.80;;
80425;SDS011;69766;51.476;5.704;2024-03-08T08:35:39;42.45;;;20.48;;
80425;SDS011;69766;51.476;5.704;2024-03-08T08:38:19;43.20;;;22.02;;
80425;SDS011;69766;51.476;5.704;2024-03-08T08:40:48;42.92;;;19.20;;
80425;SDS011;69766;51.476;5.704;2024-03-08T08:43:18;42.53;;;21.65;;
80425;SDS011;69766;51.476;5.704;2024-03-08T08:48:38;41.80;;;20.98;;
80425;SDS011;69766;51.476;5.704;2024-03-08T08:54:40;40.17;;;19.38;;
80425;SDS011;69766;51.476;5.704;2024-03-08T08:57:12;36.90;;;19.30;;
80425;SDS011;69766;51.476;5.704;2024-03-08T09:02:52;36.53;;;18.27;;
80425;SDS011;69766;51.476;5.704;2024-03-08T09:05:20;33.08;;;18.38;;
80425;SDS011;69766;51.476;5.704;2024-03-08T09:07:49;37.22;;;20.08;;
80425;SDS011;69766;51.476;5.704;2024-03-08T09:13:45;36.65;;;18.63;;
80425;SDS011;69766;51.476;5.704;2024-03-08T09:16:14;39.92;;;19.08;;
80425;SDS011;69766;51.476;5.704;2024-03-08T09:18:41;34.75;;;18.30;;
80425;SDS011;69766;51.476;5.704;2024-03-08T09:28:30;32.95;;;18.33;;
80425;SDS011;69766;51.476;5.704;2024-03-08T09:30:57;32.70;;;17.30;;
80425;SDS011;69766;51.476;5.704;2024-03-08T09:33:23;29.95;;;16.77;;
80425;SDS011;69766;51.476;5.704;2024-03-08T09:35:49;35.42;;;17.63;;
80425;SDS011;69766;51.476;5.704;2024-03-08T09:38:16;38.00;;;18.00;;
80425;SDS011;69766;51.476;5.704;2024-03-08T09:44:04;32.15;;;17.13;;
80425;SDS011;69766;51.476;5.704;2024-03-08T09:46:36;32.65;;;18.15;;
80425;SDS011;69766;51.476;5.704;2024-03-08T09:49:02;32.92;;;17.70;;
80425;SDS011;69766;51.476;5.704;2024-03-08T09:51:30;32.20;;;16.38;;
80425;SDS011;69766;51.476;5.704;2024-03-08T09:54:00;30.50;;;18.58;;
80425;SDS011;69766;51.476;5.704;2024-03-08T09:56:29;31.20;;;17.02;;
80425;SDS011;69766;51.476;5.704;2024-03-08T09:59:01;31.42;;;15.98;;
80425;SDS011;69766;51.476;5.704;2024-03-08T10:02:00;31.35;;;16.58;;
80425;SDS011;69766;51.476;5.704;2024-03-08T10:04:27;31.88;;;16.83;;
80425;SDS011;69766;51.476;5.704;2024-03-08T10:06:57;33.63;;;17.90;;
80425;SDS011;69766;51.476;5.704;2024-03-08T10:09:24;31.85;;;16.75;;
80425;SDS011;69766;51.476;5.704;2024-03-08T10:11:58;30.70;;;16.83;;
80425;SDS011;69766;51.476;5.704;2024-03-08T10:14:30;31.77;;;16.10;;
80425;SDS011;69766;51.476;5.704;2024-03-08T10:16:56;31.85;;;17.13;;
80425;SDS011;69766;51.476;5.704;2024-03-08T10:19:28;27.45;;;15.23;;
80425;SDS011;69766;51.476;5.704;2024-03-08T10:21:55;30.50;;;16.38;;
80425;SDS011;69766;51.476;5.704;2024-03-08T10:24:26;30.63;;;16.73;;
80425;SDS011;69766;51.476;5.704;2024-03-08T10:26:53;32.55;;;18.88;;
80425;SDS011;69766;51.476;5.704;2024-03-08T10:29:37;31.98;;;16.90;;
80425;SDS011;69766;51.476;5.704;2024-03-08T10:43:01;32.28;;;17.08;;
80425;SDS011;69766;51.476;5.704;2024-03-08T10:49:26;26.77;;;15.55;;
80425;SDS011;69766;51.476;5.704;2024-03-08T10:52:19;28.73;;;15.38;;
80425;SDS011;69766;51.476;5.704;2024-03-08T10:54:56;26.27;;;14.65;;
80425;SDS011;69766;51.476;5.704;2024-03-08T10:57:24;28.30;;;14.52;;
80425;SDS011;69766;51.476;5.704;2024-03-08T10:59:55;27.45;;;16.17;;
80425;SDS011;69766;51.476;5.704;2024-03-08T11:02:28;26.83;;;14.80;;
80425;SDS011;69766;51.476;5.704;2024-03-08T11:08:20;25.65;;;12.38;;
80425;SDS011;69766;51.476;5.704;2024-03-08T11:10:51;25.45;;;12.05;;
80425;SDS011;69766;51.476;5.704;2024-03-08T11:13:40;23.85;;;11.32;;
80425;SDS011;69766;51.476;5.704;2024-03-08T11:19:00;20.55;;;10.07;;
80425;SDS011;69766;51.476;5.704;2024-03-08T11:21:29;19.73;;;10.30;;
80425;SDS011;69766;51.476;5.704;2024-03-08T11:24:11;21.33;;;10.73;;
80425;SDS011;69766;51.476;5.704;2024-03-08T11:26:44;19.35;;;10.68;;
80425;SDS011;69766;51.476;5.704;2024-03-08T11:38:48;19.75;;;10.25;;
80425;SDS011;69766;51.476;5.704;2024-03-08T11:41:56;20.85;;;10.93;;
80425;SDS011;69766;51.476;5.704;2024-03-08T11:44:26;19.85;;;10.48;;
80425;SDS011;69766;51.476;5.704;2024-03-08T11:46:52;22.80;;;12.07;;
80425;SDS011;69766;51.476;5.704;2024-03-08T11:49:22;21.75;;;12.02;;
80425;SDS011;69766;51.476;5.704;2024-03-08T11:51:51;20.02;;;10.82;;
80425;SDS011;69766;51.476;5.704;2024-03-08T11:54:18;19.67;;;12.10;;
80425;SDS011;69766;51.476;5.704;2024-03-08T11:56:45;19.75;;;10.60;;
80425;SDS011;69766;51.476;5.704;2024-03-08T11:59:20;18.33;;;10.07;;
80425;SDS011;69766;51.476;5.704;2024-03-08T12:02:04;21.02;;;12.13;;
80425;SDS011;69766;51.476;5.704;2024-03-08T12:04:31;20.75;;;12.43;;
80425;SDS011;69766;51.476;5.704;2024-03-08T12:07:01;22.40;;;11.32;;
80425;SDS011;69766;51.476;5.704;2024-03-08T12:09:33;18.88;;;10.20;;
80425;SDS011;69766;51.476;5.704;2024-03-08T12:12:05;20.85;;;10.63;;
80425;SDS011;69766;51.476;5.704;2024-03-08T12:14:36;25.92;;;11.23;;
80425;SDS011;69766;51.476;5.704;2024-03-08T12:17:03;18.20;;;9.32;;
80425;SDS011;69766;51.476;5.704;2024-03-08T12:19:54;19.90;;;10.48;;
80425;SDS011;69766;51.476;5.704;2024-03-08T12:22:40;20.23;;;9.63;;
80425;SDS011;69766;51.476;5.704;2024-03-08T12:25:10;18.48;;;10.18;;
80425;SDS011;69766;51.476;5.704;2024-03-08T12:27:48;24.02;;;10.30;;
80425;SDS011;69766;51.476;5.704;2024-03-08T12:30:25;19.50;;;10.38;;
80425;SDS011;69766;51.476;5.704;2024-03-08T12:33:06;21.58;;;11.23;;
80425;SDS011;69766;51.476;5.704;2024-03-08T12:35:37;17.83;;;9.52;;
80425;SDS011;69766;51.476;5.704;2024-03-08T12:38:04;17.17;;;8.20;;
80425;SDS011;69766;51.476;5.704;2024-03-08T12:40:32;17.08;;;9.35;;
80425;SDS011;69766;51.476;5.704;2024-03-08T12:43:05;18.33;;;9.85;;
80425;SDS011;69766;51.476;5.704;2024-03-08T12:45:31;15.98;;;10.35;;
80425;SDS011;69766;51.476;5.704;2024-03-08T12:47:57;17.80;;;8.85;;
80425;SDS011;69766;51.476;5.704;2024-03-08T12:50:24;17.83;;;9.65;;
80425;SDS011;69766;51.476;5.704;2024-03-08T12:52:50;16.50;;;8.52;;
80425;SDS011;69766;51.476;5.704;2024-03-08T12:55:23;16.50;;;9.13;;
80425;SDS011;69766;51.476;5.704;2024-03-08T12:57:58;18.30;;;9.63;;
80425;SDS011;69766;51.476;5.704;2024-03-08T13:00:59;17.48;;;10.63;;
80425;SDS011;69766;51.476;5.704;2024-03-08T13:03:21;17.20;;;9.70;;
80425;SDS011;69766;51.476;5.704;2024-03-08T13:06:19;15.85;;;9.30;;
80425;SDS011;69766;51.476;5.704;2024-03-08T13:08:49;15.07;;;9.68;;
80425;SDS011;69766;51.476;5.704;2024-03-08T13:11:19;16.42;;;10.27;;
80425;SDS011;69766;51.476;5.704;2024-03-08T13:16:47;19.15;;;9.40;;
80425;SDS011;69766;51.476;5.704;2024-03-08T13:19:16;21.73;;;9.55;;
80425;SDS011;69766;51.476;5.704;2024-03-08T13:21:42;17.50;;;9.63;;
80425;SDS011;69766;51.476;5.704;2024-03-08T13:24:08;21.20;;;9.85;;
80425;SDS011;69766;51.476;5.704;2024-03-08T13:26:39;14.45;;;8.63;;
80425;SDS011;69766;51.476;5.704;2024-03-08T13:29:29;14.70;;;8.77;;
80425;SDS011;69766;51.476;5.704;2024-03-08T13:32:10;14.98;;;8.13;;
80425;SDS011;69766;51.476;5.704;2024-03-08T13:34:43;16.10;;;9.63;;
80425;SDS011;69766;51.476;5.704;2024-03-08T13:37:18;14.32;;;7.70;;
80425;SDS011;69766;51.476;5.704;2024-03-08T13:46:16;22.67;;;9.60;;
80425;SDS011;69766;51.476;5.704;2024-03-08T13:48:50;17.98;;;9.48;;
80425;SDS011;69766;51.476;5.704;2024-03-08T13:51:30;18.98;;;9.13;;
80425;SDS011;69766;51.476;5.704;2024-03-08T13:54:01;16.95;;;9.57;;
80425;SDS011;69766;51.476;5.704;2024-03-08T14:00:16;16.70;;;9.80;;
80425;SDS011;69766;51.476;5.704;2024-03-08T14:03:22;15.05;;;9.15;;
80425;SDS011;69766;51.476;5.704;2024-03-08T14:05:54;17.58;;;8.48;;
80425;SDS011;69766;51.476;5.704;2024-03-08T14:08:35;17.35;;;9.57;;
80425;SDS011;69766;51.476;5.704;2024-03-08T14:11:04;15.45;;;9.35;;
80425;SDS011;69766;51.476;5.704;2024-03-08T14:13:43;14.63;;;8.68;;
80425;SDS011;69766;51.476;5.704;2024-03-08T14:16:10;16.73;;;9.45;;
80425;SDS011;69766;51.476;5.704;2024-03-08T14:18:45;15.18;;;9.07;;
80425;SDS011;69766;51.476;5.704;2024-03-08T14:21:21;17.25;;;9.30;;
80425;SDS011;69766;51.476;5.704;2024-03-08T14:23:50;15.88;;;8.82;;
80425;SDS011;69766;51.476;5.704;2024-03-08T14:26:18;14.80;;;8.90;;
80425;SDS011;69766;51.476;5.704;2024-03-08T14:28:50;14.65;;;8.25;;
80425;SDS011;69766;51.476;5.704;2024-03-08T14:34:31;16.38;;;8.77;;
80425;SDS011;69766;51.476;5.704;2024-03-08T14:37:23;14.60;;;8.23;;
80425;SDS011;69766;51.476;5.704;2024-03-08T14:40:00;16.63;;;8.90;;
80425;SDS011;69766;51.476;5.704;2024-03-08T14:42:54;18.67;;;9.23;;
80425;SDS011;69766;51.476;5.704;2024-03-08T14:58:55;19.05;;;8.65;;
80425;SDS011;69766;51.476;5.704;2024-03-08T15:01:43;22.52;;;9.23;;
80425;SDS011;69766;51.476;5.704;2024-03-08T15:07:38;15.32;;;8.25;;
80425;SDS011;69766;51.476;5.704;2024-03-08T15:10:14;14.35;;;8.60;;
80425;SDS011;69766;51.476;5.704;2024-03-08T15:12:49;17.80;;;8.25;;
80425;SDS011;69766;51.476;5.704;2024-03-08T15:15:20;13.13;;;7.18;;
80425;SDS011;69766;51.476;5.704;2024-03-08T15:17:49;14.93;;;7.43;;
80425;SDS011;69766;51.476;5.704;2024-03-08T15:20:16;13.10;;;8.07;;
80425;SDS011;69766;51.476;5.704;2024-03-08T15:22:58;14.75;;;7.97;;
80425;SDS011;69766;51.476;5.704;2024-03-08T15:25:25;17.77;;;8.90;;
80425;SDS011;69766;51.476;5.704;2024-03-08T15:28:04;12.93;;;8.02;;
80425;SDS011;69766;51.476;5.704;2024-03-08T15:30:38;18.98;;;7.88;;
80425;SDS011;69766;51.476;5.704;2024-03-08T15:33:14;14.18;;;7.53;;
80425;SDS011;69766;51.476;5.704;2024-03-08T15:35:49;15.55;;;7.80;;
80425;SDS011;69766;51.476;5.704;2024-03-08T15:38:24;16.17;;;8.85;;
80425;SDS011;69766;51.476;5.704;2024-03-08T15:40:52;12.95;;;7.97;;
80425;SDS011;69766;51.476;5.704;2024-03-08T15:43:23;14.55;;;7.40;;
80425;SDS011;69766;51.476;5.704;2024-03-08T15:46:11;16.50;;;8.63;;
80425;SDS011;69766;51.476;5.704;2024-03-08T15:48:42;14.95;;;7.65;;
80425;SDS011;69766;51.476;5.704;2024-03-08T16:07:44;15.55;;;7.93;;
80425;SDS011;69766;51.476;5.704;2024-03-08T16:10:17;18.88;;;9.63;;
80425;SDS011;69766;51.476;5.704;2024-03-08T16:16:13;16.45;;;8.15;;
80425;SDS011;69766;51.476;5.704;2024-03-08T16:31:51;14.20;;;7.88;;
80425;SDS011;69766;51.476;5.704;2024-03-08T16:51:07;15.40;;;7.97;;
80425;SDS011;69766;51.476;5.704;2024-03-08T16:53:48;16.30;;;8.45;;
80425;SDS011;69766;51.476;5.704;2024-03-08T17:04:11;19.13;;;9.00;;
80425;SDS011;69766;51.476;5.704;2024-03-08T17:10:13;20.23;;;9.20;;
80425;SDS011;69766;51.476;5.704;2024-03-08T17:23:16;20.35;;;9.90;;
80425;SDS011;69766;51.476;5.704;2024-03-08T17:26:32;17.38;;;9.93;;
80425;SDS011;69766;51.476;5.704;2024-03-08T17:28:58;19.65;;;9.68;;
80425;SDS011;69766;51.476;5.704;2024-03-08T17:31:24;18.05;;;9.38;;
80425;SDS011;69766;51.476;5.704;2024-03-08T17:33:49;20.58;;;10.32;;
80425;SDS011;69766;51.476;5.704;2024-03-08T17:36:16;20.95;;;9.65;;
80425;SDS011;69766;51.476;5.704;2024-03-08T17:38:43;22.05;;;11.52;;
80425;SDS011;69766;51.476;5.704;2024-03-08T17:43:52;19.20;;;10.40;;
80425;SDS011;69766;51.476;5.704;2024-03-08T17:46:49;20.83;;;10.45;;
80425;SDS011;69766;51.476;5.704;2024-03-08T17:49:32;20.63;;;10.35;;
80425;SDS011;69766;51.476;5.704;2024-03-08T17:52:30;22.95;;;11.38;;
80425;SDS011;69766;51.476;5.704;2024-03-08T17:55:11;20.05;;;10.40;;
80425;SDS011;69766;51.476;5.704;2024-03-08T17:57:44;18.98;;;9.93;;
80425;SDS011;69766;51.476;5.704;2024-03-08T18:00:16;21.88;;;11.35;;
80425;SDS011;69766;51.476;5.704;2024-03-08T18:02:48;20.23;;;10.65;;
80425;SDS011;69766;51.476;5.704;2024-03-08T18:05:21;23.02;;;11.15;;
80425;SDS011;69766;51.476;5.704;2024-03-08T18:07:52;21.00;;;10.68;;
80425;SDS011;69766;51.476;5.704;2024-03-08T18:10:19;19.45;;;10.07;;
80425;SDS011;69766;51.476;5.704;2024-03-08T18:12:48;20.45;;;11.00;;
80425;SDS011;69766;51.476;5.704;2024-03-08T18:15:19;26.15;;;11.95;;
80425;SDS011;69766;51.476;5.704;2024-03-08T18:17:59;22.23;;;11.32;;
80425;SDS011;69766;51.476;5.704;2024-03-08T18:20:29;25.80;;;12.15;;
80425;SDS011;69766;51.476;5.704;2024-03-08T18:26:16;22.25;;;11.57;;
80425;SDS011;69766;51.476;5.704;2024-03-08T18:28:57;21.00;;;11.10;;
80425;SDS011;69766;51.476;5.704;2024-03-08T18:34:33;24.00;;;12.80;;
80425;SDS011;69766;51.476;5.704;2024-03-08T18:37:16;23.95;;;12.32;;
80425;SDS011;69766;51.476;5.704;2024-03-08T18:46:02;25.65;;;12.07;;
80425;SDS011;69766;51.476;5.704;2024-03-08T18:49:11;25.90;;;12.13;;
80425;SDS011;69766;51.476;5.704;2024-03-08T19:23:43;29.45;;;14.02;;
80425;SDS011;69766;51.476;5.704;2024-03-08T20:41:20;34.90;;;16.95;;
80425;SDS011;69766;51.476;5.704;2024-03-08T20:44:25;41.55;;;18.70;;
80425;SDS011;69766;51.476;5.704;2024-03-08T20:47:43;39.15;;;18.92;;
80425;SDS011;69766;51.476;5.704;2024-03-08T21:19:34;42.30;;;19.05;;
80425;SDS011;69766;51.476;5.704;2024-03-08T21:37:12;45.80;;;20.67;;
80425;SDS011;69766;51.476;5.704;2024-03-08T21:57:23;44.28;;;20.65;;
80425;SDS011;69766;51.476;5.704;2024-03-08T22:03:45;44.55;;;20.23;;
80425;SDS011;69766;51.476;5.704;2024-03-08T22:27:54;48.83;;;22.27;;
80425;SDS011;69766;51.476;5.704;2024-03-08T23:18:59;46.97;;;21.05;;
